Time;durP1;ratioP1;P1;durP2;ratioP2;P2;SDS_P1;SDS_P2;PMS_P1;PMS_P2;Temp;Humidity;BMP_temperature;BMP_pressure;BME280_temperature;BME280_humidity;BME280_pressure;Samples;Min_cycle;Max_cycle;Signal;HPM_P1;HPM_P2
2023/07/06 00:01:05;;;;;;;19.00;17.10;;;11.80;99.90;;;;;;6187947;23;20095;-77
2023/07/06 00:03:31;;;;;;;19.08;17.00;;;11.80;99.90;;;;;;6213326;23;20079;-77
2023/07/06 00:05:58;;;;;;;20.67;18.60;;;11.70;99.90;;;;;;6186581;23;20500;-77
2023/07/06 00:08:27;;;;;;;20.25;18.10;;;11.70;99.90;;;;;;6187885;23;20318;-77
2023/07/06 00:10:54;;;;;;;19.48;16.67;;;11.60;99.90;;;;;;6187661;23;20020;-77
2023/07/06 00:13:23;;;;;;;29.20;20.70;;;11.60;99.90;;;;;;6188247;23;20441;-77
2023/07/06 00:15:50;;;;;;;27.67;19.95;;;11.50;99.90;;;;;;6187189;23;20048;-76
2023/07/06 00:18:17;;;;;;;18.95;16.98;;;11.40;99.90;;;;;;6187421;23;20024;-77
2023/07/06 00:20:43;;;;;;;21.60;18.35;;;11.40;99.90;;;;;;6187353;23;20013;-77
2023/07/06 00:23:10;;;;;;;28.52;21.13;;;11.40;99.90;;;;;;6187741;23;20458;-77
2023/07/06 00:25:45;;;;;;;18.25;16.50;;;11.40;99.90;;;;;;6187089;23;20020;-77
2023/07/06 00:28:12;;;;;;;16.92;15.43;;;11.30;99.90;;;;;;6187420;23;20013;-77
2023/07/06 00:33:15;;;;;;;20.10;18.00;;;11.30;99.90;;;;;;6212117;23;20021;-76
2023/07/06 00:35:41;;;;;;;19.15;17.20;;;11.30;99.90;;;;;;6187422;23;20017;-77
2023/07/06 00:38:10;;;;;;;18.23;16.33;;;11.30;99.90;;;;;;6187067;23;20465;-77
2023/07/06 00:40:45;;;;;;;17.55;15.90;;;11.30;99.90;;;;;;6187499;23;20016;-77
2023/07/06 00:43:17;;;;;;;17.58;15.82;;;11.30;99.90;;;;;;6187173;23;20019;-77
2023/07/06 00:45:45;;;;;;;18.58;16.73;;;11.20;99.90;;;;;;6185969;23;20054;-77
2023/07/06 00:48:22;;;;;;;16.33;14.63;;;11.20;99.90;;;;;;6186993;23;20088;-76
2023/07/06 00:51:00;;;;;;;19.95;16.65;;;11.20;99.90;;;;;;6212218;23;20453;-77
2023/07/06 00:53:29;;;;;;;20.23;17.42;;;11.20;99.90;;;;;;6188048;23;20142;-77
2023/07/06 00:55:58;;;;;;;19.80;17.42;;;11.10;99.90;;;;;;6211506;23;20019;-76
2023/07/06 00:58:34;;;;;;;18.50;16.40;;;11.20;99.90;;;;;;6187258;23;20019;-77
2023/07/06 01:01:04;;;;;;;20.73;18.45;;;11.10;99.90;;;;;;6187286;23;20023;-77
2023/07/06 01:03:32;;;;;;;21.30;18.67;;;11.10;99.90;;;;;;6187753;23;20013;-77
2023/07/06 01:06:02;;;;;;;21.38;18.45;;;11.00;99.90;;;;;;6186924;23;20009;-76
2023/07/06 01:08:35;;;;;;;21.45;18.33;;;11.00;99.90;;;;;;6187054;23;20055;-77
2023/07/06 01:11:01;;;;;;;;;;;11.00;99.90;;;;;;6186456;23;20155;-77
2023/07/06 01:13:28;;;;;;;17.10;15.32;;;10.90;99.90;;;;;;6186678;23;20348;-76
2023/07/06 01:16:04;;;;;;;20.33;18.23;;;10.90;99.90;;;;;;6186466;23;20020;-77
2023/07/06 01:18:47;;;;;;;17.67;15.88;;;10.90;99.90;;;;;;6212197;23;20028;-76
2023/07/06 01:21:49;;;;;;;25.35;19.92;;;10.90;99.90;;;;;;6186621;23;20016;-76
2023/07/06 01:24:40;;;;;;;21.58;19.08;;;11.00;99.90;;;;;;6205997;23;20012;-77
2023/07/06 01:27:36;;;;;;;17.67;15.88;;;11.00;99.90;;;;;;6187172;23;20564;-77
2023/07/06 01:30:25;;;;;;;22.63;20.15;;;11.00;99.90;;;;;;6212396;23;20353;-77
2023/07/06 01:32:57;;;;;;;21.75;19.50;;;11.10;99.90;;;;;;6187133;23;20049;-77
2023/07/06 01:35:33;;;;;;;20.55;18.42;;;11.10;99.90;;;;;;6186333;23;20052;-76
2023/07/06 01:38:02;;;;;;;22.63;19.70;;;11.20;99.90;;;;;;6186873;23;20017;-76
2023/07/06 01:40:28;;;;;;;24.58;21.95;;;11.20;99.90;;;;;;6187440;23;20038;-76
2023/07/06 01:42:59;;;;;;;21.27;19.17;;;11.20;99.90;;;;;;6186664;23;20453;-76
2023/07/06 01:45:28;;;;;;;22.80;20.50;;;11.30;99.90;;;;;;6186188;23;20055;-76
2023/07/06 01:48:04;;;;;;;20.95;18.77;;;11.20;99.90;;;;;;6211491;23;20054;-76
2023/07/06 01:51:00;;;;;;;21.67;19.58;;;11.30;99.90;;;;;;6212299;23;20408;-76
2023/07/06 01:53:42;;;;;;;19.73;17.45;;;11.30;99.90;;;;;;6186124;23;20071;-76
2023/07/06 01:56:17;;;;;;;21.95;19.60;;;11.30;99.90;;;;;;6186745;23;20326;-76
2023/07/06 01:58:54;;;;;;;23.80;20.65;;;11.40;99.90;;;;;;6212499;23;20380;-76
2023/07/06 02:01:26;;;;;;;24.77;22.08;;;11.40;99.90;;;;;;6186622;23;20453;-76
2023/07/06 02:03:53;;;;;;;22.35;20.02;;;11.40;99.90;;;;;;6185555;23;20062;-76
2023/07/06 02:06:20;;;;;;;22.52;17.85;;;11.40;99.90;;;;;;6211516;23;20507;-76
2023/07/06 02:08:45;;;;;;;24.92;21.48;;;11.40;99.90;;;;;;6187111;23;20327;-76
2023/07/06 02:11:14;;;;;;;21.45;19.23;;;11.50;99.90;;;;;;6187291;23;20017;-76
2023/07/06 02:13:41;;;;;;;23.85;21.42;;;11.40;99.90;;;;;;6186895;23;20021;-76
2023/07/06 02:16:07;;;;;;;21.02;19.02;;;11.40;99.90;;;;;;6211276;23;20019;-76
2023/07/06 02:18:33;;;;;;;23.77;20.55;;;11.40;99.90;;;;;;6186832;23;20020;-76
2023/07/06 02:21:02;;;;;;;24.98;22.38;;;11.50;99.90;;;;;;6186608;23;20027;-76
2023/07/06 02:23:29;;;;;;;27.27;23.33;;;11.50;99.90;;;;;;6188005;23;20008;-76
2023/07/06 02:25:55;;;;;;;27.13;23.15;;;11.50;99.90;;;;;;6188100;23;20333;-76
2023/07/06 02:28:22;;;;;;;22.92;20.27;;;11.50;99.90;;;;;;6189006;23;20015;-76
2023/07/06 02:30:49;;;;;;;28.95;23.50;;;11.50;99.90;;;;;;6213539;23;20457;-76
2023/07/06 02:33:18;;;;;;;26.63;22.38;;;11.50;99.90;;;;;;6188650;23;20024;-76
2023/07/06 02:35:47;;;;;;;25.40;22.90;;;11.50;99.90;;;;;;6188685;23;20017;-76
2023/07/06 02:38:18;;;;;;;31.35;24.55;;;11.50;99.90;;;;;;6188290;23;20143;-76
2023/07/06 02:40:44;;;;;;;26.42;22.48;;;11.50;99.90;;;;;;6213332;23;20013;-76
2023/07/06 02:43:09;;;;;;;30.73;24.63;;;11.60;99.90;;;;;;6188609;23;20115;-76
2023/07/06 02:45:38;;;;;;;27.52;23.88;;;11.50;99.90;;;;;;6188497;23;20013;-76
2023/07/06 02:48:04;;;;;;;29.00;22.25;;;11.60;99.90;;;;;;6187614;23;20086;-76
2023/07/06 02:50:30;;;;;;;28.05;23.65;;;11.60;99.90;;;;;;6188416;23;20026;-76
2023/07/06 02:52:57;;;;;;;27.27;22.92;;;11.60;99.90;;;;;;6188979;23;20016;-76
2023/07/06 02:55:23;;;;;;;27.45;24.42;;;11.60;99.90;;;;;;6213671;23;20020;-76
2023/07/06 02:57:52;;;;;;;26.13;22.83;;;11.60;99.90;;;;;;6212960;23;20012;-76
2023/07/06 03:00:22;;;;;;;24.98;22.33;;;11.60;99.90;;;;;;6188631;23;20090;-76
2023/07/06 03:02:48;;;;;;;25.95;23.10;;;11.70;99.90;;;;;;6188519;23;20013;-77
2023/07/06 03:05:16;;;;;;;35.13;26.85;;;11.80;99.90;;;;;;6188936;23;20017;-76
2023/07/06 03:07:42;;;;;;;24.67;22.00;;;11.80;99.90;;;;;;6187301;23;20008;-76
2023/07/06 03:10:09;;;;;;;23.52;20.98;;;11.80;99.90;;;;;;6213178;23;20012;-76
2023/07/06 03:12:38;;;;;;;31.27;24.48;;;11.80;99.90;;;;;;6188694;23;20024;-76
2023/07/06 03:15:13;;;;;;;26.35;21.42;;;11.80;99.90;;;;;;6188326;23;20029;-76
2023/07/06 03:17:39;;;;;;;24.83;22.15;;;11.80;99.90;;;;;;6188427;23;20017;-76
2023/07/06 03:20:15;;;;;;;29.25;23.42;;;11.80;99.90;;;;;;6187130;23;20024;-76
2023/07/06 03:22:45;;;;;;;25.35;21.35;;;11.80;99.90;;;;;;6213012;23;20047;-76
2023/07/06 03:25:40;;;;;;;30.58;23.05;;;11.80;99.90;;;;;;6188804;23;20012;-77
2023/07/06 03:28:06;;;;;;;31.30;23.75;;;11.80;99.90;;;;;;6168938;23;20008;-76
2023/07/06 03:30:32;;;;;;;23.10;20.52;;;11.70;99.90;;;;;;6188009;23;20471;-76
2023/07/06 03:32:59;;;;;;;25.65;22.60;;;11.70;99.90;;;;;;6188580;23;20344;-77
2023/07/06 03:35:28;;;;;;;34.63;23.67;;;11.80;99.90;;;;;;6213264;23;20460;-76
2023/07/06 03:37:58;;;;;;;30.67;22.85;;;11.70;99.90;;;;;;6187462;23;20086;-76
2023/07/06 03:40:26;;;;;;;32.35;23.92;;;11.70;99.90;;;;;;6188587;23;20166;-76
2023/07/06 03:42:55;;;;;;;33.92;24.75;;;11.70;99.90;;;;;;6188511;23;20019;-76
2023/07/06 03:45:22;;;;;;;30.02;24.08;;;11.80;99.90;;;;;;6188148;23;20020;-76
2023/07/06 03:47:50;;;;;;;32.72;25.10;;;11.80;99.90;;;;;;6187252;23;20031;-76
2023/07/06 03:50:17;;;;;;;30.77;23.40;;;11.80;99.90;;;;;;6186900;23;20012;-77
2023/07/06 03:52:44;;;;;;;30.75;23.38;;;11.90;99.90;;;;;;6188296;23;20016;-76
2023/07/06 03:55:18;;;;;;;30.88;23.63;;;11.90;99.90;;;;;;6188466;23;20463;-77
2023/07/06 03:57:45;;;;;;;30.23;24.73;;;11.90;99.90;;;;;;6188176;23;20318;-77
2023/07/06 04:00:25;;;;;;;29.27;24.38;;;11.90;99.90;;;;;;6211592;23;20066;-76
2023/07/06 04:02:57;;;;;;;27.52;21.52;;;12.00;99.90;;;;;;6188253;23;20019;-76
2023/07/06 04:05:31;;;;;;;29.20;23.40;;;12.00;99.90;;;;;;6212868;23;20017;-76
2023/07/06 04:08:03;;;;;;;24.05;21.38;;;12.00;99.90;;;;;;6186670;23;20043;-75
2023/07/06 04:10:29;;;;;;;26.15;22.67;;;12.00;99.90;;;;;;6212396;23;20184;-76
2023/07/06 04:12:56;;;;;;;26.08;20.80;;;12.00;99.90;;;;;;6212624;23;20059;-75
2023/07/06 04:15:22;;;;;;;28.92;22.50;;;12.00;99.90;;;;;;6212231;23;20512;-76
2023/07/06 04:17:48;;;;;;;27.70;22.90;;;11.90;99.90;;;;;;6212238;23;20334;-75
2023/07/06 04:20:21;;;;;;;28.55;22.13;;;11.90;99.90;;;;;;6212540;23;20447;-75
2023/07/06 04:22:48;;;;;;;27.25;21.73;;;12.00;99.90;;;;;;6188015;23;20013;-75
2023/07/06 04:25:21;;;;;;;28.67;22.02;;;11.90;99.90;;;;;;6187923;23;20040;-75
2023/07/06 04:27:47;;;;;;;31.40;23.63;;;11.90;99.90;;;;;;6211283;23;20091;-75
2023/07/06 04:30:14;;;;;;;27.48;23.33;;;11.90;99.90;;;;;;6211470;23;20012;-75
2023/07/06 04:32:41;;;;;;;24.83;21.92;;;11.90;99.90;;;;;;6212993;23;20041;-75
2023/07/06 04:35:12;;;;;;;29.40;24.00;;;11.90;99.90;;;;;;6187849;23;20521;-75
2023/07/06 04:37:37;;;;;;;36.67;27.33;;;12.00;99.90;;;;;;6211276;23;20100;-75
2023/07/06 04:40:11;;;;;;;24.30;20.77;;;12.30;99.90;;;;;;6212441;23;20040;-75
2023/07/06 04:42:37;;;;;;;21.65;19.10;;;12.60;99.90;;;;;;6212211;23;20009;-75
2023/07/06 04:45:04;;;;;;;19.40;17.45;;;13.10;99.90;;;;;;6212142;23;20055;-75
2023/07/06 04:47:30;;;;;;;17.58;15.52;;;13.70;99.90;;;;;;6210483;23;20005;-75
2023/07/06 04:49:55;;;;;;;16.33;14.32;;;14.30;99.90;;;;;;6211750;23;20451;-76
2023/07/06 04:52:21;;;;;;;16.08;14.32;;;14.80;99.90;;;;;;6211239;23;20495;-75
2023/07/06 04:54:50;;;;;;;17.27;13.40;;;15.30;99.90;;;;;;6211101;23;20009;-75
2023/07/06 04:57:16;;;;;;;14.45;13.02;;;15.80;99.90;;;;;;6212362;23;20445;-75
2023/07/06 04:59:43;;;;;;;13.43;10.52;;;16.30;99.90;;;;;;6212063;23;20012;-77
2023/07/06 05:02:10;;;;;;;13.80;10.65;;;16.60;99.90;;;;;;6211576;23;20016;-76
2023/07/06 05:04:40;;;;;;;15.38;11.35;;;17.10;99.90;;;;;;6211709;23;20084;-74
2023/07/06 05:07:07;;;;;;;13.95;9.80;;;17.40;99.90;;;;;;6212315;23;20135;-76
2023/07/06 05:09:32;;;;;;;12.10;9.70;;;17.70;99.90;;;;;;6212236;23;20008;-76
2023/07/06 05:11:58;;;;;;;11.00;8.93;;;18.10;99.90;;;;;;6211585;23;20310;-74
2023/07/06 05:14:24;;;;;;;10.63;9.60;;;18.40;99.90;;;;;;6211840;23;20071;-74
2023/07/06 05:16:50;;;;;;;11.65;8.73;;;18.70;99.90;;;;;;6211648;23;20075;-75
2023/07/06 05:19:16;;;;;;;10.77;9.02;;;19.00;99.90;;;;;;6212508;23;20096;-75
2023/07/06 05:21:42;;;;;;;11.15;7.97;;;19.40;99.90;;;;;;6212572;23;20044;-75
2023/07/06 05:24:08;;;;;;;10.10;8.43;;;19.50;99.90;;;;;;6212358;23;20009;-75
2023/07/06 05:26:34;;;;;;;10.88;7.95;;;19.70;99.90;;;;;;6211865;23;20012;-75
2023/07/06 05:28:59;;;;;;;10.32;8.55;;;20.10;99.90;;;;;;6187042;23;20020;-76
2023/07/06 05:31:26;;;;;;;11.27;7.57;;;20.30;99.90;;;;;;6212025;23;20099;-75
2023/07/06 05:33:52;;;;;;;11.07;8.70;;;20.00;99.90;;;;;;6211806;23;20024;-77
2023/07/06 05:36:17;;;;;;;10.40;8.05;;;19.60;99.90;;;;;;6211695;23;20035;-76
2023/07/06 05:38:43;;;;;;;10.90;7.97;;;19.50;99.90;;;;;;6211475;23;20020;-75
2023/07/06 05:41:08;;;;;;;10.50;8.27;;;18.90;99.90;;;;;;6211037;23;20452;-75
2023/07/06 05:43:34;;;;;;;11.68;8.40;;;18.60;99.90;;;;;;6212174;23;20059;-75
2023/07/06 05:46:00;;;;;;;12.30;9.27;;;18.20;99.90;;;;;;6211380;23;20092;-75
2023/07/06 05:48:25;;;;;;;12.48;8.80;;;18.10;99.90;;;;;;6211455;23;20092;-76
2023/07/06 05:50:51;;;;;;;14.18;9.60;;;18.10;99.90;;;;;;6211718;23;20478;-77
2023/07/06 05:53:16;;;;;;;12.02;8.43;;;18.30;99.90;;;;;;6211931;23;20491;-76
2023/07/06 05:55:43;;;;;;;14.07;8.73;;;18.70;99.90;;;;;;6211416;23;20348;-76
2023/07/06 05:58:10;;;;;;;12.00;8.30;;;19.10;99.90;;;;;;6213102;23;20044;-76
2023/07/06 06:00:42;;;;;;;13.65;8.30;;;19.30;99.90;;;;;;6212796;23;20088;-75
2023/07/06 06:03:07;;;;;;;13.43;8.50;;;19.40;99.90;;;;;;6213056;23;20122;-76
2023/07/06 06:05:34;;;;;;;13.50;8.90;;;19.40;99.90;;;;;;6213264;23;20453;-76
2023/07/06 06:08:01;;;;;;;13.18;8.82;;;19.10;99.90;;;;;;6212967;23;20012;-76
2023/07/06 06:10:28;;;;;;;12.02;9.10;;;18.60;99.90;;;;;;6214162;23;20095;-76
2023/07/06 06:12:54;;;;;;;12.50;9.60;;;18.30;99.90;;;;;;6189223;23;20020;-76
2023/07/06 06:15:20;;;;;;;13.38;9.25;;;18.00;99.90;;;;;;6214179;23;20100;-76
2023/07/06 06:17:48;;;;;;;15.98;9.98;;;17.80;99.90;;;;;;6213907;23;20044;-76
2023/07/06 06:20:13;;;;;;;13.00;9.68;;;17.50;99.90;;;;;;6214118;23;20019;-76
2023/07/06 06:22:40;;;;;;;13.98;10.20;;;17.30;99.90;;;;;;6214130;23;20044;-76
2023/07/06 06:25:05;;;;;;;14.23;10.80;;;17.20;99.90;;;;;;6213715;23;20013;-76
2023/07/06 06:27:32;;;;;;;17.45;11.60;;;17.00;99.90;;;;;;6188747;23;20337;-76
2023/07/06 06:29:58;;;;;;;14.13;11.15;;;16.90;99.90;;;;;;6214186;23;20013;-76
2023/07/06 06:32:25;;;;;;;14.43;11.73;;;16.80;99.90;;;;;;6214157;23;20023;-76
2023/07/06 06:34:51;;;;;;;15.30;12.63;;;16.90;99.90;;;;;;6214059;23;20044;-76
2023/07/06 06:37:16;;;;;;;18.83;13.23;;;16.80;99.90;;;;;;6213267;23;20044;-76
2023/07/06 06:39:43;;;;;;;24.08;18.58;;;16.80;99.90;;;;;;6213396;23;20020;-76
2023/07/06 06:42:09;;;;;;;27.30;23.42;;;16.70;99.90;;;;;;6214065;23;20016;-76
2023/07/06 06:44:35;;;;;;;27.08;23.65;;;16.60;99.90;;;;;;6214090;23;20013;-75
2023/07/06 06:47:04;;;;;;;26.52;20.52;;;16.50;99.90;;;;;;6213749;23;20091;-76
2023/07/06 06:49:30;;;;;;;19.30;16.13;;;16.50;99.90;;;;;;6213917;23;20044;-76
2023/07/06 06:51:56;;;;;;;19.63;14.57;;;16.60;99.90;;;;;;6213298;23;20013;-76
2023/07/06 06:54:21;;;;;;;18.73;14.52;;;16.60;99.90;;;;;;6188806;23;20091;-76
2023/07/06 06:56:47;;;;;;;19.63;14.27;;;16.70;99.90;;;;;;6213671;23;20016;-76
2023/07/06 06:59:13;;;;;;;20.42;14.07;;;16.70;99.90;;;;;;6213174;23;20472;-76
2023/07/06 07:01:40;;;;;;;19.67;12.50;;;16.80;99.90;;;;;;6214176;23;20039;-76
2023/07/06 07:04:09;;;;;;;19.92;11.20;;;16.90;99.90;;;;;;6213295;23;20008;-76
2023/07/06 07:06:38;;;;;;;21.13;13.18;;;17.00;99.90;;;;;;6213485;23;20464;-76
2023/07/06 07:09:04;;;;;;;18.88;13.18;;;17.10;99.90;;;;;;6213127;23;20016;-76
2023/07/06 07:11:30;;;;;;;19.58;12.90;;;17.20;99.90;;;;;;6213850;23;20040;-76
2023/07/06 07:13:56;;;;;;;19.67;12.85;;;17.30;99.90;;;;;;6212863;23;20012;-76
2023/07/06 07:16:23;;;;;;;20.75;14.73;;;17.40;99.90;;;;;;6188093;23;20008;-76
2023/07/06 07:18:49;;;;;;;17.75;14.35;;;17.40;99.90;;;;;;6213491;23;20009;-76
2023/07/06 07:21:15;;;;;;;17.08;14.15;;;17.40;99.90;;;;;;6213602;23;20016;-76
2023/07/06 07:23:46;;;;;;;17.33;12.85;;;17.50;99.90;;;;;;6213599;23;20135;-76
2023/07/06 07:26:18;;;;;;;21.00;14.88;;;17.70;99.90;;;;;;6187879;23;20005;-76
2023/07/06 07:28:48;;;;;;;17.47;15.70;;;17.90;99.90;;;;;;6212650;23;20091;-76
2023/07/06 07:31:14;;;;;;;19.60;14.57;;;17.90;99.90;;;;;;6213512;23;20061;-76
2023/07/06 07:33:44;;;;;;;18.20;12.43;;;18.00;99.90;;;;;;6213520;23;20017;-76
2023/07/06 07:36:11;;;;;;;16.73;11.48;;;17.90;99.90;;;;;;6213335;23;20012;-76
2023/07/06 07:38:37;;;;;;;17.60;12.20;;;17.90;99.90;;;;;;6212605;23;20094;-76
2023/07/06 07:41:06;;;;;;;15.27;12.13;;;18.00;99.90;;;;;;6213521;23;20382;-76
2023/07/06 07:43:33;;;;;;;15.25;11.55;;;18.10;99.90;;;;;;6213494;23;20005;-76
2023/07/06 07:46:04;;;;;;;18.52;10.60;;;18.20;99.90;;;;;;6213143;23;20070;-76
2023/07/06 07:48:37;;;;;;;15.93;11.35;;;18.30;99.90;;;;;;6188389;23;20012;-76
2023/07/06 07:51:04;;;;;;;;;;;18.50;99.90;;;;;;6213427;23;20023;-76
2023/07/06 07:53:35;;;;;;;17.20;11.23;;;18.70;99.90;;;;;;6213418;23;19912;-76
2023/07/06 07:56:01;;;;;;;14.73;10.95;;;19.20;99.90;;;;;;6213162;23;20047;-77
2023/07/06 07:58:27;;;;;;;13.77;9.00;;;19.80;99.90;;;;;;6213227;23;20044;-77
2023/07/06 08:00:57;;;;;;;10.52;9.02;;;20.50;99.90;;;;;;6213204;23;20017;-76
2023/07/06 08:03:24;;;;;;;12.07;8.30;;;21.00;99.90;;;;;;6213304;23;20023;-76
2023/07/06 08:05:59;;;;;;;12.63;8.15;;;21.60;99.90;;;;;;6212387;23;20020;-76
2023/07/06 08:08:25;;;;;;;10.68;7.45;;;22.30;99.90;;;;;;6213109;23;20445;-76
2023/07/06 08:10:55;;;;;;;10.13;6.93;;;22.70;99.90;;;;;;6213111;23;20063;-76
2023/07/06 08:13:22;;;;;;;11.32;7.10;;;23.00;99.90;;;;;;6213209;23;20009;-76
2023/07/06 08:15:48;;;;;;;10.07;6.88;;;23.30;99.90;;;;;;6212616;23;20020;-76
2023/07/06 08:18:15;;;;;;;11.75;6.80;;;23.80;99.90;;;;;;6213001;23;20338;-77
2023/07/06 08:20:43;;;;;;;10.57;6.15;;;24.40;99.90;;;;;;6212216;23;20012;-77
2023/07/06 08:23:12;;;;;;;9.25;5.95;;;24.70;99.90;;;;;;6213039;23;20075;-76
2023/07/06 08:25:41;;;;;;;11.30;6.30;;;24.80;99.90;;;;;;6187419;23;20005;-76
2023/07/06 08:28:09;;;;;;;6.65;5.03;;;25.10;99.90;;;;;;6212197;23;20042;-76
2023/07/06 08:30:37;;;;;;;11.50;6.00;;;24.80;99.90;;;;;;6187865;23;20057;-76
2023/07/06 08:33:02;;;;;;;9.27;5.55;;;24.50;99.90;;;;;;6212989;23;20013;-77
2023/07/06 08:35:29;;;;;;;8.02;5.75;;;24.60;99.90;;;;;;6212810;23;20315;-77
2023/07/06 08:37:55;;;;;;;9.77;5.55;;;24.90;99.90;;;;;;6212483;23;20045;-77
2023/07/06 08:40:26;;;;;;;8.85;5.25;;;25.40;99.90;;;;;;6212839;23;20440;-77
2023/07/06 08:42:55;;;;;;;9.70;5.47;;;25.80;99.90;;;;;;6212635;23;20151;-77
2023/07/06 08:45:24;;;;;;;7.93;5.70;;;25.80;99.90;;;;;;6187845;23;20005;-77
2023/07/06 08:47:51;;;;;;;10.18;6.20;;;25.60;99.90;;;;;;6212102;23;20087;-77
2023/07/06 08:50:25;;;;;;;8.38;6.03;;;25.50;99.90;;;;;;6212789;23;20380;-77
2023/07/06 08:52:53;;;;;;;8.05;5.50;;;25.40;99.90;;;;;;6212991;23;20239;-77
2023/07/06 08:55:18;;;;;;;7.68;5.47;;;25.60;99.90;;;;;;6212802;23;20017;-77
2023/07/06 08:57:45;;;;;;;9.75;5.47;;;25.90;99.90;;;;;;6212412;23;20023;-77
2023/07/06 09:00:25;;;;;;;10.10;5.90;;;25.80;99.90;;;;;;6212597;23;20012;-77
2023/07/06 09:03:10;;;;;;;9.70;5.60;;;25.50;99.90;;;;;;6212636;23;20050;-77
2023/07/06 09:05:43;;;;;;;9.70;5.30;;;25.60;99.90;;;;;;6212062;23;20051;-77
2023/07/06 09:08:17;;;;;;;9.57;5.43;;;25.50;99.90;;;;;;6212428;23;20009;-77
2023/07/06 09:10:43;;;;;;;7.85;4.50;;;25.30;99.90;;;;;;6212600;23;20040;-77
2023/07/06 09:13:27;;;;;;;8.73;4.85;;;25.00;99.90;;;;;;6212651;23;20476;-76
2023/07/06 09:16:00;;;;;;;7.97;4.05;;;24.60;99.90;;;;;;6212362;23;20357;-76
2023/07/06 09:18:26;;;;;;;6.00;3.10;;;24.30;99.90;;;;;;6212315;23;20021;-77
2023/07/06 09:20:53;;;;;;;5.15;3.30;;;23.80;99.90;;;;;;6211954;23;20017;-76
2023/07/06 09:23:19;;;;;;;8.00;3.75;;;23.40;99.90;;;;;;6212824;23;20020;-76
2023/07/06 09:25:46;;;;;;;6.18;3.92;;;23.00;99.90;;;;;;6212587;23;20016;-76
2023/07/06 09:28:19;;;;;;;7.32;4.40;;;22.60;99.90;;;;;;6212414;23;20031;-76
2023/07/06 09:30:47;;;;;;;7.72;4.32;;;22.30;99.90;;;;;;6212405;23;20098;-76
2023/07/06 09:33:26;;;;;;;8.63;4.45;;;22.00;99.90;;;;;;6211979;23;20095;-76
2023/07/06 09:35:54;;;;;;;6.82;4.60;;;21.90;99.90;;;;;;6212210;23;20019;-76
2023/07/06 09:38:20;;;;;;;7.70;3.75;;;22.00;99.90;;;;;;6212369;23;20399;-76
2023/07/06 09:40:47;;;;;;;6.78;3.85;;;22.20;99.90;;;;;;6212467;23;20245;-76
2023/07/06 09:43:24;;;;;;;9.00;3.40;;;22.80;99.90;;;;;;6212404;23;20475;-76
2023/07/06 09:45:51;;;;;;;7.30;3.35;;;23.20;99.90;;;;;;6211693;23;20013;-76
2023/07/06 09:48:36;;;;;;;4.85;3.05;;;23.00;99.90;;;;;;6187168;23;20013;-77
2023/07/06 09:51:11;;;;;;;5.00;2.90;;;22.80;99.90;;;;;;6212814;23;20016;-76
2023/07/06 09:53:54;;;;;;;5.47;2.90;;;22.40;99.90;;;;;;6211919;23;20016;-77
2023/07/06 09:56:20;;;;;;;5.88;3.00;;;22.20;99.90;;;;;;6212125;23;20441;-76
2023/07/06 09:58:48;;;;;;;7.70;3.65;;;21.90;99.90;;;;;;6211999;23;20028;-76
2023/07/06 10:01:31;;;;;;;7.68;3.60;;;21.70;99.90;;;;;;6211797;23;20044;-76
2023/07/06 10:04:26;;;;;;;6.18;3.65;;;21.50;99.90;;;;;;6151841;23;20249;-77
2023/07/06 10:07:01;;;;;;;7.85;4.10;;;21.40;99.90;;;;;;6152096;23;20017;-77
2023/07/06 10:10:23;;;;;;;5.93;3.25;;;21.20;99.90;;;;;;6145255;23;20429;-77
2023/07/06 10:13:28;;;;;;;7.63;3.75;;;21.00;99.90;;;;;;6156435;23;20070;-77
2023/07/06 10:16:44;;;;;;;7.82;4.22;;;20.70;99.90;;;;;;6156094;23;20465;-77
2023/07/06 10:19:45;;;;;;;;;;;;;;;;;;;;;
2023/07/06 10:22:53;;;;;;;7.28;4.25;;;20.50;99.90;;;;;;6151843;23;20036;-77
2023/07/06 10:25:27;;;;;;;8.43;4.63;;;20.70;99.90;;;;;;6108143;23;20009;-77
2023/07/06 10:28:32;;;;;;;8.57;4.90;;;20.80;99.90;;;;;;6129536;23;20041;-77
2023/07/06 10:31:10;;;;;;;7.50;4.60;;;20.90;99.90;;;;;;6128372;23;20092;-77
2023/07/06 10:37:24;;;;;;;6.60;4.50;;;21.00;99.90;;;;;;6150042;23;20400;-77
2023/07/06 10:40:04;;;;;;;9.27;4.63;;;21.40;99.90;;;;;;6128292;23;20018;-77
2023/07/06 10:42:42;;;;;;;7.57;4.22;;;22.10;99.90;;;;;;6123565;23;20013;-77
2023/07/06 10:45:36;;;;;;;9.38;3.97;;;22.50;99.90;;;;;;6128842;23;20020;-77
2023/07/06 10:48:34;;;;;;;7.75;4.18;;;22.50;99.90;;;;;;6121845;23;20010;-77
2023/07/06 10:51:22;;;;;;;7.38;4.00;;;22.70;99.90;;;;;;6130162;23;20020;-77
2023/07/06 10:54:16;;;;;;;6.13;3.72;;;23.30;99.90;;;;;;6130044;23;20119;-77
2023/07/06 10:57:11;;;;;;;8.32;3.42;;;24.40;99.90;;;;;;6153746;23;20095;-77
2023/07/06 11:00:07;;;;;;;;;;;;;;;;;;;;;
2023/07/06 11:06:05;;;;;;;5.90;2.70;;;26.00;99.90;;;;;;6149344;23;20096;-78
2023/07/06 11:09:07;;;;;;;5.47;2.25;;;25.70;99.90;;;;;;6152757;23;20025;-77
2023/07/06 11:12:01;;;;;;;4.55;2.20;;;25.00;99.90;;;;;;6128824;23;20013;-77
2023/07/06 11:14:44;;;;;;;6.07;2.40;;;24.30;99.90;;;;;;6128713;23;20111;-77
2023/07/06 11:17:22;;;;;;;3.83;2.28;;;23.80;99.90;;;;;;6105224;23;20079;-77
2023/07/06 11:20:31;;;;;;;6.22;2.80;;;23.80;99.90;;;;;;6104814;23;20439;-77
2023/07/06 11:23:35;;;;;;;7.53;3.20;;;24.10;99.90;;;;;;6105809;23;20084;-77
2023/07/06 11:26:44;;;;;;;7.45;3.40;;;24.30;99.90;;;;;;6105426;23;20049;-77
2023/07/06 11:32:41;;;;;;;5.25;3.40;;;26.00;99.90;;;;;;6116254;23;20026;-77
2023/07/06 11:35:23;;;;;;;5.38;3.28;;;26.70;99.90;;;;;;6102949;23;20017;-78
2023/07/06 11:38:08;;;;;;;6.18;3.25;;;26.90;97.70;;;;;;6103886;23;20306;-78
2023/07/06 11:41:25;;;;;;;5.68;3.00;;;27.20;82.70;;;;;;6103949;23;20072;-78
2023/07/06 11:44:45;;;;;;;4.82;2.78;;;27.40;70.80;;;;;;6104720;23;20009;-77
2023/07/06 11:47:48;;;;;;;5.55;2.78;;;27.30;91.40;;;;;;6100144;23;20032;-77
2023/07/06 11:50:55;;;;;;;5.60;2.65;;;27.20;92.20;;;;;;6106865;23;20462;-78
2023/07/06 11:59:55;;;;;;;5.88;3.20;;;25.20;99.90;;;;;;6149097;23;20152;-77
2023/07/06 12:03:03;;;;;;;5.60;3.30;;;24.70;99.90;;;;;;6112711;23;20013;-77
2023/07/06 12:05:59;;;;;;;6.07;3.40;;;24.10;99.90;;;;;;6083388;23;20051;-77
2023/07/06 12:08:47;;;;;;;5.38;3.58;;;23.70;99.90;;;;;;6069282;23;20021;-77
2023/07/06 12:11:38;;;;;;;8.13;3.47;;;23.40;99.90;;;;;;6152882;23;20049;-77
2023/07/06 12:14:21;;;;;;;6.75;4.00;;;23.10;99.90;;;;;;6153117;23;20013;-77
2023/07/06 12:17:02;;;;;;;5.53;3.90;;;22.70;99.90;;;;;;6128084;23;20024;-77
2023/07/06 12:19:56;;;;;;;6.60;4.22;;;22.30;99.90;;;;;;6152938;23;20014;-77
2023/07/06 12:22:32;;;;;;;8.23;4.30;;;21.90;99.90;;;;;;6153005;23;20010;-77
2023/07/06 12:25:04;;;;;;;7.30;4.40;;;21.60;99.90;;;;;;6128242;23;20052;-77
2023/07/06 12:27:33;;;;;;;7.30;4.07;;;21.40;99.90;;;;;;6128456;23;20476;-78
2023/07/06 12:30:49;;;;;;;6.30;3.80;;;21.10;99.90;;;;;;6127473;23;20025;-77
2023/07/06 12:33:29;;;;;;;5.40;4.07;;;21.10;99.90;;;;;;6100583;23;20032;-78
2023/07/06 12:36:06;;;;;;;5.95;3.70;;;21.10;99.90;;;;;;6129500;23;20018;-77
2023/07/06 12:38:47;;;;;;;7.80;4.00;;;21.20;99.90;;;;;;6128707;23;20022;-77
2023/07/06 12:41:36;;;;;;;6.38;3.97;;;21.40;99.90;;;;;;6128784;23;20469;-77
2023/07/06 12:44:27;;;;;;;8.52;4.05;;;21.80;99.90;;;;;;6129311;23;20013;-77
2023/07/06 12:47:37;;;;;;;6.72;3.97;;;22.60;99.90;;;;;;6125917;23;20045;-78
2023/07/06 12:50:29;;;;;;;7.28;4.00;;;23.20;99.90;;;;;;6152852;23;20017;-77
2023/07/06 12:53:16;;;;;;;5.40;3.22;;;23.30;99.90;;;;;;6127474;23;20473;-77
2023/07/06 12:55:58;;;;;;;8.98;3.28;;;23.20;99.90;;;;;;6122525;23;20201;-77
2023/07/06 12:58:39;;;;;;;5.82;3.25;;;22.90;99.90;;;;;;6128072;23;20048;-77
2023/07/06 13:01:34;;;;;;;6.95;3.40;;;22.70;99.90;;;;;;6126509;23;20484;-78
2023/07/06 13:04:19;;;;;;;5.45;3.30;;;22.40;99.90;;;;;;6129260;23;20020;-77
2023/07/06 13:06:59;;;;;;;5.25;3.97;;;22.10;99.90;;;;;;6152535;23;20018;-77
2023/07/06 13:10:07;;;;;;;8.07;3.83;;;21.80;99.90;;;;;;6152215;23;20021;-77
2023/07/06 13:12:54;;;;;;;7.90;4.07;;;21.60;99.90;;;;;;6129916;23;20049;-77
2023/07/06 13:16:23;;;;;;;6.85;4.30;;;21.40;99.90;;;;;;6142463;23;20024;-77
2023/07/06 13:18:58;;;;;;;7.32;4.60;;;21.40;99.90;;;;;;6152909;23;20024;-77
2023/07/06 13:21:45;;;;;;;7.20;4.75;;;21.50;99.90;;;;;;6124537;23;20017;-77
2023/07/06 13:24:39;;;;;;;7.28;4.95;;;21.70;99.90;;;;;;6130632;23;20068;-77
2023/07/06 13:27:33;;;;;;;7.35;5.15;;;22.10;99.90;;;;;;6152742;23;20017;-77
2023/07/06 13:30:13;;;;;;;6.47;5.13;;;22.80;99.90;;;;;;6129447;23;20423;-77
2023/07/06 13:33:10;;;;;;;9.00;5.28;;;23.70;99.90;;;;;;6153085;23;20025;-77